Terminal Aerodrome Forecast
Issued by NWS

Home | Current Version | Previous Version | Text Only | Print | Product List | Glossary On
Versions: 1 2 3 4 5 6 7 8 9 10 11 12 13
000
FTUS44 KTSA 171700
TAFFYV
TAF
KFYV 171720Z 1718/1818 00000KT P6SM SCT250
     FM172200 01003KT P6SM BKN100
     FM181400 VRB03KT P6SM SCT100=

USA.gov is the U.S. government's official web portal to all federal, state and local government web resources and services.